createdAt,value
2018-09-10T00:00:33.925Z,97.28
2018-09-10T00:01:42.571Z,97.66
2018-09-10T00:02:51.480Z,97.42
2018-09-10T00:04:00.388Z,97.37
2018-09-10T00:05:09.030Z,97.66
2018-09-10T00:06:17.674Z,97.66
2018-09-10T00:07:26.321Z,97.28
2018-09-10T00:08:34.967Z,97.47
2018-09-10T00:09:43.613Z,97.66
2018-09-10T00:10:52.253Z,97.47
2018-09-10T00:12:00.903Z,97.28
2018-09-10T00:13:09.811Z,96.99
2018-09-10T00:14:18.456Z,97.42
2018-09-10T00:15:27.097Z,97.28
2018-09-10T00:16:35.751Z,97.08
2018-09-10T00:17:44.657Z,97.13
2018-09-10T00:18:53.306Z,97.33
2018-09-10T00:20:01.940Z,97.04
2018-09-10T00:21:10.885Z,97.23
2018-09-10T00:22:19.535Z,97.23
2018-09-10T00:23:28.440Z,97.04
2018-09-10T00:24:37.088Z,96.84
2018-09-10T00:25:45.728Z,96.37
2018-09-10T00:26:54.377Z,96.47
2018-09-10T00:28:03.017Z,96.27
2018-09-10T00:29:11.928Z,96.37
2018-09-10T00:30:20.564Z,96.37
2018-09-10T00:31:29.212Z,96.27
2018-09-10T00:32:37.852Z,96.66
2018-09-10T00:33:46.507Z,96.66
2018-09-10T00:34:55.407Z,96.84
2018-09-10T00:36:04.054Z,96.84
2018-09-10T00:37:12.700Z,96.37
2018-09-10T00:38:21.355Z,96.27
2018-09-10T00:39:30.001Z,96.37
2018-09-10T00:40:38.641Z,96.18
2018-09-10T00:41:47.289Z,95.98
2018-09-10T00:42:55.931Z,96.27
2018-09-10T00:44:04.864Z,95.79
2018-09-10T00:45:13.498Z,95.61
2018-09-10T00:46:22.148Z,95.7
2018-09-10T00:47:30.783Z,95.61
2018-09-10T00:48:39.701Z,96.47
2018-09-10T00:49:48.341Z,96.84
2018-09-10T00:50:56.992Z,97.33
2018-09-10T00:52:05.627Z,97.04
2018-09-10T00:53:14.286Z,97.04
2018-09-10T00:54:22.927Z,97.33
2018-09-10T00:55:31.842Z,97.52
2018-09-10T00:56:40.481Z,97.52
2018-09-10T00:57:49.390Z,98.24
2018-09-10T00:58:58.040Z,98.19
2018-09-10T01:00:06.686Z,97.85
2018-09-10T01:01:15.333Z,98.14
2018-09-10T01:02:23.968Z,98.24
2018-09-10T01:03:32.880Z,98.14
2018-09-10T01:04:41.529Z,97.95
2018-09-10T01:05:50.179Z,98.33
2018-09-10T01:06:58.815Z,98.61
2018-09-10T01:08:07.472Z,98.71
2018-09-10T01:09:16.895Z,98.61
2018-09-10T01:10:25.552Z,98.9
2018-09-10T01:11:34.184Z,98.61
2018-09-10T01:12:43.099Z,98.61
2018-09-10T01:13:51.747Z,98.09
2018-09-10T01:15:00.643Z,97.75
2018-09-10T01:16:09.287Z,97.9
2018-09-10T01:17:17.942Z,98.19
2018-09-10T01:18:26.590Z,97.8
2018-09-10T01:19:35.236Z,97.13
2018-09-10T01:20:43.873Z,97.42
2018-09-10T01:21:52.522Z,97.23
2018-09-10T01:23:01.425Z,97.33
2018-09-10T01:24:10.344Z,96.75
2018-09-10T01:25:18.989Z,96.66
2018-09-10T01:26:27.900Z,96.94
2018-09-10T01:27:36.540Z,96.56
2018-09-10T01:28:45.471Z,96.47
2018-09-10T01:29:54.371Z,96.56
2018-09-10T01:31:03.017Z,96.27
2018-09-10T01:32:11.928Z,96.08
2018-09-10T01:33:20.589Z,96.18
2018-09-10T01:34:29.229Z,96.18
2018-09-10T01:35:38.148Z,96.27
2018-09-10T01:36:46.787Z,95.61
2018-09-10T01:37:55.433Z,95.79
2018-09-10T01:39:04.090Z,95.79
2018-09-10T01:40:12.728Z,95.61
2018-09-10T01:41:21.376Z,96.08
2018-09-10T01:42:30.013Z,96.08
2018-09-10T01:43:38.665Z,95.98
2018-09-10T01:44:47.305Z,95.61
2018-09-10T01:45:55.957Z,95.22
2018-09-10T01:47:04.594Z,94.84
2018-09-10T01:48:13.249Z,94.74
2018-09-10T01:49:21.897Z,95.12
2018-09-10T01:50:30.543Z,95.22
2018-09-10T01:51:39.177Z,94.93
2018-09-10T01:52:47.826Z,94.84
2018-09-10T01:53:56.479Z,95.03
2018-09-10T01:55:05.122Z,94.93
2018-09-10T01:56:13.768Z,95.03
2018-09-10T01:57:22.406Z,94.45
2018-09-10T01:58:31.326Z,94.55
2018-09-10T01:59:39.966Z,94.26
2018-09-10T02:00:48.887Z,94.74
2018-09-10T02:01:57.523Z,94.84
2018-09-10T02:03:06.171Z,94.93
2018-09-10T02:04:14.812Z,94.65
2018-09-10T02:05:23.463Z,94.93
2018-09-10T02:06:32.099Z,94.93
2018-09-10T02:07:41.009Z,95.41
2018-09-10T02:08:49.657Z,95.22
2018-09-10T02:09:58.310Z,96.18
2018-09-10T02:11:06.954Z,95.7
2018-09-10T02:12:15.593Z,95.89
2018-09-10T02:13:24.239Z,96.08
2018-09-10T02:14:32.882Z,95.89
2018-09-10T02:15:41.526Z,95.61
2018-09-10T02:16:50.173Z,95.51
2018-09-10T02:17:58.818Z,95.7
2018-09-10T02:19:07.456Z,95.51
2018-09-10T02:20:16.117Z,95.84
2018-09-10T02:21:25.035Z,95.75
2018-09-10T02:22:33.679Z,95.79
2018-09-10T02:23:42.417Z,96.18
2018-09-10T02:24:50.968Z,95.89
2018-09-10T02:25:59.872Z,95.89
2018-09-10T02:27:08.520Z,95.61
2018-09-10T02:28:17.161Z,96.18
2018-09-10T02:29:26.334Z,96.37
2018-09-10T02:30:34.983Z,96.47
2018-09-10T02:31:43.635Z,96.37
2018-09-10T02:32:52.548Z,96.27
2018-09-10T02:34:01.194Z,96.18
2018-09-10T02:35:09.838Z,96.56
2018-09-10T02:36:18.748Z,96.66
2018-09-10T02:37:27.398Z,96.84
2018-09-10T02:38:36.369Z,96.61
2018-09-10T02:39:44.941Z,97.04
2018-09-10T02:40:53.589Z,97.28
2018-09-10T02:42:02.237Z,97.9
2018-09-10T02:43:11.139Z,97.8
2018-09-10T02:44:19.793Z,98.09
2018-09-10T02:45:28.441Z,98.04
2018-09-10T02:46:37.361Z,97.85
2018-09-10T02:47:46.001Z,98.04
2018-09-10T02:48:54.647Z,98.33
2018-09-10T02:50:03.291Z,97.85
2018-09-10T02:51:12.198Z,98.43
2018-09-10T02:52:20.850Z,98.04
2018-09-10T02:53:29.497Z,97.66
2018-09-10T02:54:38.415Z,97.95
2018-09-10T02:55:47.055Z,98.71
2018-09-10T02:56:55.962Z,99.48
2018-09-10T02:58:04.615Z,99.96
2018-09-10T02:59:13.785Z,99.96
2018-09-10T03:00:22.688Z,99.99
2018-09-10T03:01:31.339Z,99.99
2018-09-10T03:02:39.984Z,99.86
2018-09-10T03:03:48.631Z,99.99
2018-09-10T03:04:57.279Z,99.99
2018-09-10T03:06:06.189Z,99.99
2018-09-10T03:07:14.837Z,99.99
2018-09-10T03:08:23.482Z,99.96
2018-09-10T03:09:32.657Z,99.99
2018-09-10T03:10:41.298Z,99.99
2018-09-10T03:11:49.953Z,99.99
2018-09-10T03:12:58.591Z,99.99
2018-09-10T03:14:07.513Z,99.99
2018-09-10T03:15:16.684Z,99.99
2018-09-10T03:16:25.335Z,99.99
2018-09-10T03:17:34.236Z,99.99
2018-09-10T03:18:42.894Z,99.99
2018-09-10T03:19:51.529Z,99.99
2018-09-10T03:21:00.177Z,99.99
2018-09-10T03:22:09.085Z,99.99
2018-09-10T03:23:18.026Z,99.99
2018-09-10T03:24:26.665Z,99.99
2018-09-10T03:25:35.308Z,99.99
2018-09-10T03:26:43.953Z,99.99
2018-09-10T03:27:52.857Z,99.99
2018-09-10T03:29:01.514Z,99.99
2018-09-10T03:30:10.174Z,99.99
2018-09-10T03:31:18.820Z,99.99
2018-09-10T03:32:27.461Z,99.99
2018-09-10T03:33:36.208Z,99.99
2018-09-10T03:34:45.166Z,99.99
2018-09-10T03:35:54.082Z,99.99
2018-09-10T03:37:02.716Z,99.99
2018-09-10T03:38:11.377Z,99.99
2018-09-10T03:39:20.018Z,99.99
2018-09-10T03:40:28.662Z,99.99
2018-09-10T03:41:37.300Z,99.99
2018-09-10T03:42:46.207Z,99.99
2018-09-10T03:43:55.125Z,99.99
2018-09-10T03:45:03.776Z,99.99
2018-09-10T03:46:12.426Z,99.99
2018-09-10T03:47:21.121Z,99.99
2018-09-10T03:48:29.710Z,99.99
2018-09-10T03:49:38.355Z,99.99
2018-09-10T03:50:47.272Z,99.99
2018-09-10T03:51:55.903Z,99.99
2018-09-10T03:53:04.551Z,99.99
2018-09-10T03:54:13.192Z,99.99
2018-09-10T03:55:21.846Z,99.76
2018-09-10T03:56:30.484Z,99.99
2018-09-10T03:57:39.133Z,99.99
2018-09-10T03:58:47.779Z,99.99
2018-09-10T03:59:56.433Z,99.99
2018-09-10T04:01:05.075Z,99.99
2018-09-10T04:02:13.718Z,99.99
2018-09-10T04:03:22.640Z,99.99
2018-09-10T04:04:31.807Z,99.99
2018-09-10T04:05:40.462Z,99.99
2018-09-10T04:06:49.111Z,99.99
2018-09-10T04:07:58.025Z,99.99
2018-09-10T04:09:06.664Z,99.86
2018-09-10T04:10:15.313Z,99.99
2018-09-10T04:11:23.963Z,99.99
2018-09-10T04:12:32.878Z,99.99
2018-09-10T04:13:41.522Z,99.99
2018-09-10T04:14:50.169Z,99.99
2018-09-10T04:15:58.810Z,99.99
2018-09-10T04:17:07.731Z,99.99
2018-09-10T04:18:16.365Z,99.99
2018-09-10T04:19:25.033Z,99.86
2018-09-10T04:20:33.660Z,99.99
2018-09-10T04:21:42.571Z,99.76
2018-09-10T04:22:51.224Z,99.33
2018-09-10T04:24:00.132Z,99.38
2018-09-10T04:25:08.777Z,99.99
2018-09-10T04:26:17.423Z,99.99
2018-09-10T04:27:26.071Z,99.96
2018-09-10T04:28:34.710Z,99.99
2018-09-10T04:29:43.355Z,99.99
2018-09-10T04:30:52.264Z,99.99
2018-09-10T04:32:00.913Z,99.99
2018-09-10T04:33:09.551Z,99.99
2018-09-10T04:34:18.198Z,99.99
2018-09-10T04:35:26.840Z,99.99
2018-09-10T04:36:35.490Z,99.99
2018-09-10T04:37:44.391Z,99.99
2018-09-10T04:38:53.039Z,99.99
2018-09-10T04:40:01.679Z,99.96
2018-09-10T04:41:10.594Z,99.99
2018-09-10T04:42:19.304Z,99.99
2018-09-10T04:43:28.282Z,99.99
2018-09-10T04:44:36.926Z,99.99
2018-09-10T04:45:45.565Z,99.99
2018-09-10T04:46:54.221Z,99.99
2018-09-10T04:48:02.861Z,99.99
2018-09-10T04:49:11.771Z,99.99
2018-09-10T04:50:20.411Z,99.99
2018-09-10T04:51:29.331Z,99.99
2018-09-10T04:52:37.973Z,99.99
2018-09-10T04:53:46.881Z,99.99
2018-09-10T04:54:55.794Z,99.99
2018-09-10T04:56:04.448Z,99.99
2018-09-10T04:57:13.093Z,99.99
2018-09-10T04:58:21.749Z,99.99
2018-09-10T04:59:30.399Z,99.81
2018-09-10T05:00:39.038Z,99.99
2018-09-10T05:01:47.955Z,99.62
2018-09-10T05:02:56.600Z,99.62
2018-09-10T05:04:05.249Z,99.33
2018-09-10T05:05:13.892Z,99.24
2018-09-10T05:06:22.537Z,98.95
2018-09-10T05:07:31.190Z,98.95
2018-09-10T05:08:39.831Z,98.76
2018-09-10T05:09:48.496Z,98.95
2018-09-10T05:10:57.479Z,98.66
2018-09-10T05:12:06.133Z,98.86
2018-09-10T05:13:14.775Z,98.57
2018-09-10T05:14:23.431Z,98.66
2018-09-10T05:15:32.336Z,99.15
2018-09-10T05:16:41.290Z,99.99
2018-09-10T05:17:50.209Z,99.99
2018-09-10T05:18:58.851Z,99.81
2018-09-10T05:20:07.494Z,99.99
2018-09-10T05:21:16.143Z,99.99
2018-09-10T05:22:24.794Z,99.99
2018-09-10T05:23:33.438Z,99.99
2018-09-10T05:24:42.368Z,99.99
2018-09-10T05:25:51.005Z,99.99
2018-09-10T05:26:59.662Z,99.99
2018-09-10T05:28:08.392Z,99.99
2018-09-10T05:29:16.957Z,99.99
2018-09-10T05:30:25.603Z,99.99
2018-09-10T05:31:34.791Z,99.99
2018-09-10T05:32:43.431Z,99.99
2018-09-10T05:33:52.081Z,99.99
2018-09-10T05:35:01.252Z,99.99
2018-09-10T05:36:09.902Z,99.99
2018-09-10T05:37:18.810Z,99.99
2018-09-10T05:38:27.715Z,99.99
2018-09-10T05:39:36.628Z,99.99
2018-09-10T05:40:45.267Z,99.99
2018-09-10T05:41:53.916Z,99.99
2018-09-10T05:43:02.561Z,99.99
2018-09-10T05:44:11.481Z,99.99
2018-09-10T05:45:20.123Z,99.99
2018-09-10T05:46:28.773Z,99.99
2018-09-10T05:47:37.508Z,99.99
2018-09-10T05:48:46.062Z,99.99
2018-09-10T05:49:54.706Z,99.99
2018-09-10T05:51:03.630Z,99.99
2018-09-10T05:52:12.278Z,99.99
2018-09-10T05:53:21.023Z,99.99
2018-09-10T05:54:29.588Z,99.99
2018-09-10T05:55:38.361Z,99.99
2018-09-10T05:56:46.873Z,99.99
2018-09-10T05:57:55.779Z,99.99
2018-09-10T05:59:04.430Z,99.99
2018-09-10T06:00:13.072Z,99.99
2018-09-10T06:01:21.721Z,99.99
2018-09-10T06:02:30.367Z,99.99
2018-09-10T06:03:39.020Z,99.99
2018-09-10T06:04:47.657Z,99.99
2018-09-10T06:05:56.305Z,99.99
2018-09-10T06:07:04.948Z,99.99
2018-09-10T06:08:13.869Z,99.99
2018-09-10T06:09:22.511Z,99.99
2018-09-10T06:10:31.197Z,99.99
2018-09-10T06:11:39.795Z,99.99
2018-09-10T06:12:48.441Z,99.99
2018-09-10T06:13:57.095Z,99.99
2018-09-10T06:15:05.738Z,99.99
2018-09-10T06:16:14.394Z,99.96
2018-09-10T06:17:23.026Z,99.96
2018-09-10T06:18:32.217Z,99.99
2018-09-10T06:19:40.862Z,99.99
2018-09-10T06:20:49.780Z,99.99
2018-09-10T06:21:58.678Z,99.99
2018-09-10T06:23:07.334Z,99.99
2018-09-10T06:24:15.975Z,99.91
2018-09-10T06:25:25.185Z,99.24
2018-09-10T06:26:34.361Z,98.38
2018-09-10T06:27:43.005Z,98.57
2018-09-10T06:28:51.656Z,97.8
2018-09-10T06:30:00.304Z,97.9
2018-09-10T06:31:08.954Z,97.09
2018-09-10T06:32:17.590Z,96.99
2018-09-10T06:33:26.244Z,96.51
2018-09-10T06:34:34.881Z,96.8
2018-09-10T06:35:43.552Z,96.89
2018-09-10T06:36:52.432Z,96.32
2018-09-10T06:38:01.087Z,96.66
2018-09-10T06:39:09.722Z,96.08
2018-09-10T06:40:18.379Z,96.56
2018-09-10T06:41:27.017Z,96.47
2018-09-10T06:42:35.664Z,96.27
2018-09-10T06:43:44.309Z,96.08
2018-09-10T06:44:52.966Z,95.89
2018-09-10T06:46:01.610Z,95.79
2018-09-10T06:47:10.253Z,95.79
2018-09-10T06:48:18.897Z,96.18
2018-09-10T06:49:27.800Z,95.7
2018-09-10T06:50:36.722Z,95.7
2018-09-10T06:51:45.622Z,95.51
2018-09-10T06:52:54.275Z,95.6
2018-09-10T06:54:02.913Z,96.08
2018-09-10T06:55:11.568Z,95.7
2018-09-10T06:56:20.207Z,95.41
2018-09-10T06:57:28.860Z,95.98
2018-09-10T06:58:37.493Z,96.37
2018-09-10T06:59:46.153Z,95.79
2018-09-10T07:00:55.054Z,96.32
2018-09-10T07:02:03.714Z,97.56
2018-09-10T07:03:12.349Z,96.8
2018-09-10T07:04:21.264Z,96.99
2018-09-10T07:05:29.909Z,97.33
2018-09-10T07:06:38.559Z,97.28
2018-09-10T07:07:47.206Z,96.51
2018-09-10T07:08:55.843Z,97.23
2018-09-10T07:10:04.759Z,96.94
2018-09-10T07:11:13.400Z,96.61
2018-09-10T07:12:22.054Z,96.99
2018-09-10T07:13:30.951Z,97.19
2018-09-10T07:14:39.599Z,97.28
2018-09-10T07:15:48.245Z,97.28
2018-09-10T07:16:56.899Z,96.7
2018-09-10T07:18:05.537Z,96.7
2018-09-10T07:19:14.186Z,95.46
2018-09-10T07:20:22.830Z,95.75
2018-09-10T07:21:31.488Z,95.07
2018-09-10T07:22:40.136Z,95.65
2018-09-10T07:23:48.776Z,95.12
2018-09-10T07:24:57.422Z,94.54
2018-09-10T07:26:06.069Z,93.97
2018-09-10T07:27:14.722Z,93.77
2018-09-10T07:28:23.366Z,93.68
2018-09-10T07:29:32.014Z,93.87
2018-09-10T07:30:40.648Z,93.2
2018-09-10T07:31:49.309Z,93.54
2018-09-10T07:32:57.949Z,92.96
2018-09-10T07:34:06.617Z,92.77
2018-09-10T07:35:15.517Z,92.1
2018-09-10T07:36:24.174Z,91.66
2018-09-10T07:37:33.093Z,91.85
2018-09-10T07:38:41.740Z,91.95
2018-09-10T07:39:50.378Z,91.75
2018-09-10T07:40:59.028Z,91.66
2018-09-10T07:42:07.941Z,91.66
2018-09-10T07:43:16.591Z,92.05
2018-09-10T07:44:25.240Z,91.56
2018-09-10T07:45:33.878Z,91.85
2018-09-10T07:46:42.534Z,91.56
2018-09-10T07:47:51.173Z,92.52
2018-09-10T07:48:59.890Z,92.33
2018-09-10T07:50:08.465Z,92.33
2018-09-10T07:51:17.121Z,92.91
2018-09-10T07:52:25.759Z,93.01
2018-09-10T07:53:34.416Z,93.1
2018-09-10T07:54:43.218Z,93.19
2018-09-10T07:55:51.706Z,93.49
2018-09-10T07:57:00.349Z,93.19
2018-09-10T07:58:09.004Z,93.54
2018-09-10T07:59:17.649Z,93.44
2018-09-10T08:00:26.552Z,93.77
2018-09-10T08:01:35.197Z,93.54
2018-09-10T08:02:43.840Z,93.19
2018-09-10T08:03:52.497Z,93.58
2018-09-10T08:05:01.141Z,93.34
2018-09-10T08:06:09.793Z,93.63
2018-09-10T08:07:18.696Z,93.68
2018-09-10T08:08:27.347Z,93.54
2018-09-10T08:09:36.324Z,93.54
2018-09-10T08:10:44.904Z,93.92
2018-09-10T08:11:53.548Z,93.96
2018-09-10T08:13:02.202Z,93.49
2018-09-10T08:14:10.844Z,93.63
2018-09-10T08:15:19.495Z,94.16
2018-09-10T08:16:28.193Z,93.96
2018-09-10T08:17:36.790Z,93.96
2018-09-10T08:18:45.438Z,94.16
2018-09-10T08:19:54.088Z,93.77
2018-09-10T08:21:02.737Z,93.39
2018-09-10T08:22:11.377Z,93.87
2018-09-10T08:23:20.026Z,93.68
2018-09-10T08:24:28.783Z,93.49
2018-09-10T08:25:37.729Z,93.68
2018-09-10T08:26:46.373Z,93.19
2018-09-10T08:27:55.021Z,93.49
2018-09-10T08:29:03.668Z,93.39
2018-09-10T08:30:12.319Z,93.1
2018-09-10T08:31:20.962Z,93.58
2018-09-10T08:32:29.611Z,93.58
2018-09-10T08:33:38.255Z,93.77
2018-09-10T08:34:46.905Z,92.67
2018-09-10T08:35:56.149Z,91.85
2018-09-10T08:37:05.666Z,92.47
2018-09-10T08:38:14.309Z,92.19
2018-09-10T08:39:22.954Z,92.76
2018-09-10T08:40:31.606Z,92.57
2018-09-10T08:41:40.254Z,92.86
2018-09-10T08:42:48.911Z,92.38
2018-09-10T08:43:57.555Z,92.19
2018-09-10T08:45:06.468Z,92.76
2018-09-10T08:46:15.119Z,92.57
2018-09-10T08:47:23.768Z,92.96
2018-09-10T08:48:32.671Z,93.05
2018-09-10T08:49:41.588Z,93.05
2018-09-10T08:50:50.232Z,92.09
2018-09-10T08:51:59.145Z,92.09
2018-09-10T08:53:07.790Z,92.09
2018-09-10T08:54:16.497Z,91.99
2018-09-10T08:55:25.304Z,92.09
2018-09-10T08:56:34.337Z,91.71
2018-09-10T08:57:42.997Z,91.9
2018-09-10T08:58:52.187Z,91.8
2018-09-10T09:00:00.840Z,91.8
2018-09-10T09:01:10.037Z,91.9
2018-09-10T09:02:18.686Z,91.22
2018-09-10T09:03:27.622Z,91.22
2018-09-10T09:04:36.507Z,91.13
2018-09-10T09:05:45.313Z,91.46
2018-09-10T09:06:54.049Z,91.17
2018-09-10T09:08:02.985Z,91.56
2018-09-10T09:09:11.606Z,90.79
2018-09-10T09:10:20.254Z,90.69
2018-09-10T09:11:28.897Z,90.59
2018-09-10T09:12:37.550Z,89.83
2018-09-10T09:13:46.205Z,89.54
2018-09-10T09:14:54.850Z,88.96
2018-09-10T09:16:03.504Z,89.15
2018-09-10T09:17:12.145Z,89.29
2018-09-10T09:18:20.797Z,89.54
2018-09-10T09:19:29.441Z,89.35
2018-09-10T09:20:38.092Z,88.81
2018-09-10T09:21:46.738Z,88.24
2018-09-10T09:22:55.388Z,88.29
2018-09-10T09:24:04.044Z,87.76
2018-09-10T09:25:12.690Z,87.27
2018-09-10T09:26:21.332Z,87.18
2018-09-10T09:27:30.243Z,86.79
2018-09-10T09:28:38.891Z,86.26
2018-09-10T09:29:47.602Z,85.97
2018-09-10T09:30:56.190Z,86.07
2018-09-10T09:32:04.840Z,85.78
2018-09-10T09:33:13.487Z,85.97
2018-09-10T09:34:22.137Z,85.34
2018-09-10T09:35:30.903Z,84.66
2018-09-10T09:36:39.811Z,84.66
2018-09-10T09:37:48.457Z,85.34
2018-09-10T09:38:57.365Z,85.34
2018-09-10T09:40:06.284Z,85.24
2018-09-10T09:41:14.933Z,85.24
2018-09-10T09:42:23.849Z,84.09
2018-09-10T09:43:32.553Z,84.76
2018-09-10T09:44:41.147Z,85.63
2018-09-10T09:45:49.798Z,85.14
2018-09-10T09:46:58.451Z,84.38
2018-09-10T09:48:07.094Z,84.09
2018-09-10T09:49:15.769Z,84.09
2018-09-10T09:50:24.418Z,84.47
2018-09-10T09:51:33.261Z,84.18
2018-09-10T09:52:42.176Z,85
2018-09-10T09:53:50.820Z,85.39
2018-09-10T09:54:59.471Z,85.58
2018-09-10T09:56:08.119Z,85.78
2018-09-10T09:57:16.774Z,85.78
2018-09-10T09:58:25.688Z,85.58
2018-09-10T09:59:34.601Z,85.39
2018-09-10T10:00:43.562Z,85.87
2018-09-10T10:01:52.546Z,85.68
2018-09-10T10:03:01.233Z,86.26
2018-09-10T10:04:09.950Z,86.07
2018-09-10T10:05:18.787Z,85.14
2018-09-10T10:06:27.442Z,84.76
2018-09-10T10:07:36.089Z,84.18
2018-09-10T10:08:44.734Z,85.05
2018-09-10T10:09:53.380Z,85.05
2018-09-10T10:11:02.027Z,84.18
2018-09-10T10:12:10.793Z,84.09
2018-09-10T10:13:19.335Z,84.09
2018-09-10T10:14:27.989Z,83.8
2018-09-10T10:15:36.653Z,84.18
2018-09-10T10:16:45.311Z,83.61
2018-09-10T10:17:53.957Z,84.38
2018-09-10T10:19:02.623Z,84.23
2018-09-10T10:20:11.249Z,85.49
2018-09-10T10:21:19.905Z,85.39
2018-09-10T10:22:28.550Z,85.43
2018-09-10T10:23:37.203Z,85.14
2018-09-10T10:24:45.958Z,85.43
2018-09-10T10:25:54.829Z,85.14
2018-09-10T10:27:03.487Z,84.47
2018-09-10T10:28:12.162Z,84.56
2018-09-10T10:29:21.230Z,84.38
2018-09-10T10:30:30.130Z,83.99
2018-09-10T10:31:38.782Z,83.31
2018-09-10T10:32:47.428Z,84.18
2018-09-10T10:33:56.355Z,83.8
2018-09-10T10:35:04.996Z,84.66
2018-09-10T10:36:13.914Z,84.18
2018-09-10T10:37:22.560Z,84.47
2018-09-10T10:38:31.217Z,83.51
2018-09-10T10:39:39.859Z,83.12
2018-09-10T10:40:48.509Z,83.03
2018-09-10T10:41:57.155Z,83.89
2018-09-10T10:43:05.815Z,84.18
2018-09-10T10:44:14.460Z,83.8
2018-09-10T10:45:23.106Z,83.31
2018-09-10T10:46:31.751Z,83.12
2018-09-10T10:47:40.399Z,82.93
2018-09-10T10:48:49.057Z,83.8
2018-09-10T10:49:57.709Z,83.8
2018-09-10T10:51:06.363Z,83.61
2018-09-10T10:52:15.003Z,82.83
2018-09-10T10:53:23.660Z,83.12
2018-09-10T10:54:32.361Z,82.83
2018-09-10T10:55:41.040Z,83.41
2018-09-10T10:56:49.684Z,83.31
2018-09-10T10:57:58.342Z,83.22
2018-09-10T10:59:06.988Z,83.75
2018-09-10T11:00:15.641Z,83.31
2018-09-10T11:01:24.284Z,83.56
2018-09-10T11:02:33.202Z,83.28
2018-09-10T11:03:41.851Z,83.61
2018-09-10T11:04:50.499Z,83.31
2018-09-10T11:05:59.154Z,83.51
2018-09-10T11:07:07.798Z,83.41
2018-09-10T11:08:16.446Z,82.83
2018-09-10T11:09:25.095Z,82.26
2018-09-10T11:10:33.758Z,82.06
2018-09-10T11:11:42.928Z,81.77
2018-09-10T11:12:51.577Z,82.26
2018-09-10T11:14:00.226Z,81.24
2018-09-10T11:15:08.882Z,81.14
2018-09-10T11:16:17.524Z,81.24
2018-09-10T11:17:26.176Z,79.41
2018-09-10T11:18:34.824Z,79.98
2018-09-10T11:19:43.477Z,79.79
2018-09-10T11:20:52.124Z,80.18
2018-09-10T11:22:00.803Z,80.27
2018-09-10T11:23:09.453Z,80.37
2018-09-10T11:24:18.098Z,79.69
2018-09-10T11:25:26.753Z,79.83
2018-09-10T11:26:35.408Z,78.96
2018-09-10T11:28:53.169Z,78.48
2018-09-10T11:30:02.178Z,78
2018-09-10T11:31:11.088Z,78.19
2018-09-10T11:32:19.740Z,79.06
2018-09-10T11:33:28.384Z,78.58
2018-09-10T11:34:37.114Z,79.16
2018-09-10T11:35:45.691Z,79.16
2018-09-10T11:36:54.605Z,78.67
2018-09-10T11:38:03.515Z,78.67
2018-09-10T11:39:12.424Z,78.44
2018-09-10T11:40:21.080Z,78.44
2018-09-10T11:41:29.730Z,78.83
2018-09-10T11:42:38.379Z,78.67
2018-09-10T11:43:47.025Z,78.86
2018-09-10T11:44:55.683Z,79.06
2018-09-10T11:46:04.325Z,79.69
2018-09-10T11:47:13.237Z,79.16
2018-09-10T11:48:21.885Z,79.74
2018-09-10T11:49:30.534Z,79.16
2018-09-10T11:50:39.182Z,78.67
2018-09-10T11:51:47.835Z,78.67
2018-09-10T11:52:56.481Z,78.38
2018-09-10T11:54:05.196Z,77.81
2018-09-10T11:55:14.686Z,77.51
2018-09-10T11:56:23.621Z,77.51
2018-09-10T11:57:32.560Z,77.9
2018-09-10T11:58:41.211Z,78.38
2018-09-10T11:59:49.856Z,77.61
2018-09-10T12:00:58.505Z,77.81
2018-09-10T12:02:07.292Z,78.67
2018-09-10T12:03:15.916Z,78.67
2018-09-10T12:04:24.587Z,78.77
2018-09-10T12:05:33.284Z,79.16
2018-09-10T12:06:42.009Z,78.96
2018-09-10T12:07:50.677Z,78.48
2018-09-10T12:08:59.646Z,79.06
2018-09-10T12:10:08.629Z,79.11
2018-09-10T12:11:17.287Z,78.73
2018-09-10T12:12:26.260Z,79.06
2018-09-10T12:13:35.595Z,79.16
2018-09-10T12:14:44.291Z,79.89
2018-09-10T12:15:53.243Z,79.79
2018-09-10T12:17:01.905Z,80.27
2018-09-10T12:18:10.562Z,79.6
2018-09-10T12:19:19.228Z,80.08
2018-09-10T12:20:27.890Z,80.66
2018-09-10T12:21:36.917Z,79.5
2018-09-10T12:22:45.465Z,79.6
2018-09-10T12:23:54.122Z,80.08
2018-09-10T12:25:02.761Z,79.98
2018-09-10T12:26:11.688Z,80.27
2018-09-10T12:27:20.332Z,80.76
2018-09-10T12:28:29.094Z,80.76
2018-09-10T12:29:38.121Z,80.85
2018-09-10T12:30:46.782Z,80.18
2018-09-10T12:31:55.864Z,79.64
2018-09-10T12:33:04.911Z,79.02
2018-09-10T12:34:13.655Z,79.11
2018-09-10T12:35:22.982Z,79.69
2018-09-10T12:36:31.776Z,79.6
2018-09-10T12:37:40.693Z,79.41
2018-09-10T12:38:49.383Z,79.6
2018-09-10T12:39:58.060Z,79.5
2018-09-10T12:41:06.719Z,78.83
2018-09-10T12:42:15.365Z,77.61
2018-09-10T12:43:24.024Z,77.13
2018-09-10T12:44:32.668Z,76.75
2018-09-10T12:45:41.324Z,77.61
2018-09-10T12:46:49.963Z,77.33
2018-09-10T12:47:58.621Z,77.46
2018-09-10T12:49:07.271Z,77.36
2018-09-10T12:50:15.921Z,76.3
2018-09-10T12:51:24.562Z,76.78
2018-09-10T12:52:33.212Z,76.88
2018-09-10T12:53:41.865Z,77.65
2018-09-10T12:54:50.516Z,76.88
2018-09-10T12:55:59.167Z,76.59
2018-09-10T12:57:07.808Z,76.5
2018-09-10T12:58:16.458Z,75.62
2018-09-10T12:59:25.112Z,76.01
2018-09-10T13:00:33.755Z,75.82
2018-09-10T13:01:42.413Z,75.43
2018-09-10T13:02:51.059Z,75.24
2018-09-10T13:03:59.722Z,75.14
2018-09-10T13:05:08.354Z,73.89
2018-09-10T13:06:17.346Z,72.83
2018-09-10T13:07:26.021Z,73.99
2018-09-10T13:08:34.676Z,72.34
2018-09-10T13:09:43.392Z,71.86
2018-09-10T13:10:52.047Z,71.86
2018-09-10T13:12:00.718Z,73.6
2018-09-10T13:13:09.772Z,73.89
2018-09-10T13:14:18.698Z,73.31
2018-09-10T13:15:27.341Z,72.83
2018-09-10T13:16:35.998Z,72.19
2018-09-10T13:17:44.655Z,72.25
2018-09-10T13:18:53.361Z,71.61
2018-09-10T13:20:02.080Z,72.09
2018-09-10T13:21:11.019Z,73.93
2018-09-10T13:22:19.811Z,73.44
2018-09-10T13:23:28.992Z,72
2018-09-10T13:24:37.719Z,71.8
2018-09-10T13:25:46.377Z,71.03
2018-09-10T13:26:55.289Z,71.7
2018-09-10T13:28:03.948Z,70.94
2018-09-10T13:29:12.597Z,71.7
2018-09-10T13:30:21.247Z,72.06
2018-09-10T13:31:29.895Z,72.58
2018-09-10T13:32:38.543Z,70.94
2018-09-10T13:33:47.200Z,72.34
2018-09-10T13:34:55.845Z,72.54
2018-09-10T13:36:04.498Z,72.54
2018-09-10T13:37:13.140Z,71.67
2018-09-10T13:38:21.797Z,71.19
2018-09-10T13:39:30.443Z,70.8
2018-09-10T13:40:39.104Z,71
2018-09-10T13:41:47.745Z,71.77
2018-09-10T13:42:56.718Z,72.15
2018-09-10T13:44:05.321Z,72.54
2018-09-10T13:45:13.974Z,71.96
2018-09-10T13:46:22.617Z,71.64
2018-09-10T13:47:31.266Z,71.73
2018-09-10T13:48:39.922Z,72.12
2018-09-10T13:49:48.572Z,71.92
2018-09-10T13:50:57.225Z,72.89
2018-09-10T13:52:05.870Z,72.12
2018-09-10T13:53:14.521Z,73.37
2018-09-10T13:54:23.171Z,72.31
2018-09-10T13:55:31.840Z,72.41
2018-09-10T13:56:40.733Z,74.33
2018-09-10T13:57:49.384Z,73.85
2018-09-10T13:58:58.036Z,72.31
2018-09-10T14:00:06.690Z,72.31
2018-09-10T14:01:15.339Z,72.5
2018-09-10T14:02:23.986Z,73.75
2018-09-10T14:03:32.636Z,74.33
2018-09-10T14:04:41.550Z,73.47
2018-09-10T14:05:50.202Z,72.69
2018-09-10T14:06:59.474Z,71.83
2018-09-10T14:08:08.142Z,72.6
2018-09-10T14:09:16.792Z,73.57
2018-09-10T14:10:25.466Z,72.5
2018-09-10T14:11:34.928Z,73.05
2018-09-10T14:12:43.845Z,72.66
2018-09-10T14:13:52.491Z,74.78
2018-09-10T14:15:01.146Z,73.53
2018-09-10T14:16:09.796Z,73.43
2018-09-10T14:17:18.446Z,74.01
2018-09-10T14:18:27.357Z,73.91
2018-09-10T14:19:36.023Z,74.01
2018-09-10T14:20:44.670Z,75.36
2018-09-10T14:21:53.323Z,76.03
2018-09-10T14:23:01.969Z,76.23
2018-09-10T14:24:10.624Z,75.26
2018-09-10T14:25:19.273Z,75.84
2018-09-10T14:26:27.927Z,75.07
2018-09-10T14:27:36.580Z,75.07
2018-09-10T14:28:45.229Z,74.88
2018-09-10T14:29:53.877Z,74.78
2018-09-10T14:31:02.526Z,74.49
2018-09-10T14:32:11.182Z,75.45
2018-09-10T14:33:19.827Z,74.68
2018-09-10T14:34:28.535Z,75.26
2018-09-10T14:35:37.124Z,74.58
2018-09-10T14:36:45.778Z,74.58
2018-09-10T14:37:54.424Z,75.65
2018-09-10T14:39:03.076Z,76.03
2018-09-10T14:40:11.996Z,75.36
2018-09-10T14:41:20.650Z,74.49
2018-09-10T14:42:29.301Z,75.26
2018-09-10T14:43:38.212Z,76.13
2018-09-10T14:44:46.860Z,75.84
2018-09-10T14:45:55.507Z,74.88
2018-09-10T14:47:04.160Z,76.23
2018-09-10T14:48:13.079Z,76.32